Погода Широбоковна 2 недели

Ставропольский край, Россия

19 июня-02 июля
  • 19июня
    Сегодня
    +21°
    +33°
    Практически безоблачно
    ВремяПогодаТемператураВлажностьДавлениеВетер, м/сВероятность осадков
    00:00Ясно и безоблачно+22°C64 %746 мм1.4 м/с2 %
    03:00Ясно и безоблачно+20°C74 %746 мм1.7 м/с2 %
    06:00Ясно и безоблачно+22°C66 %746 мм1.0 м/с2 %
    09:00Ясно и безоблачно+27°C49 %747 мм1.4 м/с2 %
    12:00Практически безоблачно+31°C38 %746 мм2.3 м/с3 %
    15:00Практически безоблачно+32°C35 %746 мм2.7 м/с2 %
    18:00Ясно и безоблачно+32°C32 %745 мм2.4 м/с8 %
    21:00Практически безоблачно+26°C45 %745 мм2.6 м/с2 %
  • 20июня
    Четверг
    +18°
    +34°
    Небольшая облачность
    ВремяПогодаТемператураВлажностьДавлениеВетер, м/сВероятность осадков
    00:00Практически безоблачно+22°C57 %745 мм2.2 м/с2 %
    03:00Ясно и безоблачно+21°C61 %745 мм2.1 м/с2 %
    06:00Ясно и безоблачно+24°C52 %745 мм3.5 м/с2 %
    09:00Ясно и безоблачно+30°C34 %744 мм3.6 м/с2 %
    12:00Небольшая облачность+33°C30 %743 мм2.7 м/с2 %
    15:00Небольшая облачность+33°C29 %742 мм1.7 м/с7 %
    18:00Небольшая облачность+33°C29 %741 мм2.6 м/с6 %
    21:00Практически безоблачно+28°C43 %741 мм4.1 м/с2 %
  • 21июня
    Пятница
    +16°
    +28°
    Ясно и безоблачно
    ВремяПогодаТемператураВлажностьДавлениеВетер, м/сВероятность осадков
    00:00Практически безоблачно+26°C52 %741 мм5.1 м/с2 %
    03:00Практически безоблачно+23°C63 %741 мм5.0 м/с2 %
    06:00Облачно с прояснениями+20°C69 %742 мм6.8 м/с19 %
    09:00Ясно и безоблачно+22°C50 %743 мм6.0 м/с37 %
    12:00Ясно и безоблачно+25°C32 %742 мм6.8 м/с9 %
    15:00Ясно и безоблачно+27°C28 %741 мм7.6 м/с2 %
    18:00Небольшая облачность+26°C29 %741 мм7.5 м/с2 %
    21:00Ясно и безоблачно+22°C36 %741 мм5.3 м/с2 %
  • 22июня
    Суббота
    +18°
    +29°
    Ясно и безоблачно
    ВремяПогодаТемператураВлажностьДавлениеВетер, м/сВероятность осадков
    00:00Ясно и безоблачно+18°C49 %741 мм5.3 м/с6 %
    03:00Ясно и безоблачно+17°C55 %740 мм5.3 м/с5 %
    06:00Ясно и безоблачно+17°C54 %741 мм4.6 м/с8 %
    09:00Ясно и безоблачно+23°C43 %741 мм6.9 м/с10 %
    12:00Ясно и безоблачно+27°C33 %741 мм7.0 м/с9 %
    15:00Ясно и безоблачно+29°C27 %740 мм6.8 м/с6 %
    18:00Ясно и безоблачно+28°C30 %740 мм5.8 м/с5 %
    21:00Ясно и безоблачно+22°C41 %741 мм2.4 м/с2 %
  • 23июня
    Воскресенье
    +20°
    +32°
    Практически безоблачно
    ВремяПогодаТемператураВлажностьДавлениеВетер, м/сВероятность осадков
    00:00Ясно и безоблачно+20°C52 %741 мм1.7 м/с2 %
    03:00Ясно и безоблачно+19°C54 %742 мм1.1 м/с2 %
    06:00Ясно и безоблачно+19°C55 %742 мм2.4 м/с2 %
    09:00Ясно и безоблачно+26°C35 %742 мм1.3 м/с2 %
    12:00Ясно и безоблачно+30°C29 %742 мм2.4 м/с2 %
    15:00Практически безоблачно+31°C27 %742 мм3.5 м/с2 %
    18:00Ясно и безоблачно+31°C28 %741 мм3.6 м/с2 %
    21:00Ясно и безоблачно+24°C40 %742 мм2.8 м/с2 %
Мы используем cookies
Соглашаюсь